sensor_id;sensor_type;location;lat;lon;timestamp;P1;durP1;ratioP1;P2;durP2;ratioP2
75930;SDS011;64609;47.052;15.462;2023-11-21T00:00:46;30.67;;;19.13;;
75930;SDS011;64609;47.052;15.462;2023-11-21T00:03:12;34.20;;;20.75;;
75930;SDS011;64609;47.052;15.462;2023-11-21T00:05:40;39.22;;;21.08;;
75930;SDS011;64609;47.052;15.462;2023-11-21T00:08:08;31.80;;;18.75;;
75930;SDS011;64609;47.052;15.462;2023-11-21T00:10:35;40.55;;;20.38;;
75930;SDS011;64609;47.052;15.462;2023-11-21T00:13:03;34.90;;;18.73;;
75930;SDS011;64609;47.052;15.462;2023-11-21T00:15:29;34.42;;;20.13;;
75930;SDS011;64609;47.052;15.462;2023-11-21T00:17:54;33.83;;;20.08;;
75930;SDS011;64609;47.052;15.462;2023-11-21T00:20:20;30.52;;;18.83;;
75930;SDS011;64609;47.052;15.462;2023-11-21T00:22:46;31.10;;;18.92;;
75930;SDS011;64609;47.052;15.462;2023-11-21T00:25:12;37.78;;;19.25;;
75930;SDS011;64609;47.052;15.462;2023-11-21T00:27:40;41.55;;;20.83;;
75930;SDS011;64609;47.052;15.462;2023-11-21T00:30:06;31.60;;;19.42;;
75930;SDS011;64609;47.052;15.462;2023-11-21T00:32:34;29.30;;;17.10;;
75930;SDS011;64609;47.052;15.462;2023-11-21T00:35:01;32.33;;;19.30;;
75930;SDS011;64609;47.052;15.462;2023-11-21T00:37:26;36.05;;;19.25;;
75930;SDS011;64609;47.052;15.462;2023-11-21T00:39:52;33.22;;;18.00;;
75930;SDS011;64609;47.052;15.462;2023-11-21T00:42:18;33.15;;;18.52;;
75930;SDS011;64609;47.052;15.462;2023-11-21T00:44:43;33.97;;;18.98;;
75930;SDS011;64609;47.052;15.462;2023-11-21T00:47:09;30.77;;;18.73;;
75930;SDS011;64609;47.052;15.462;2023-11-21T00:49:35;31.98;;;18.83;;
75930;SDS011;64609;47.052;15.462;2023-11-21T00:52:00;34.10;;;17.15;;
75930;SDS011;64609;47.052;15.462;2023-11-21T00:54:27;35.60;;;18.25;;
75930;SDS011;64609;47.052;15.462;2023-11-21T00:56:53;32.38;;;18.60;;
75930;SDS011;64609;47.052;15.462;2023-11-21T00:59:18;36.83;;;19.17;;
75930;SDS011;64609;47.052;15.462;2023-11-21T01:01:44;29.23;;;18.08;;
75930;SDS011;64609;47.052;15.462;2023-11-21T01:04:09;32.58;;;17.67;;
75930;SDS011;64609;47.052;15.462;2023-11-21T01:06:36;34.00;;;16.60;;
75930;SDS011;64609;47.052;15.462;2023-11-21T01:09:01;31.23;;;17.33;;
75930;SDS011;64609;47.052;15.462;2023-11-21T01:11:32;28.30;;;17.63;;
75930;SDS011;64609;47.052;15.462;2023-11-21T01:14:01;30.73;;;18.17;;
75930;SDS011;64609;47.052;15.462;2023-11-21T01:16:28;30.10;;;17.90;;
75930;SDS011;64609;47.052;15.462;2023-11-21T01:18:54;37.10;;;19.42;;
75930;SDS011;64609;47.052;15.462;2023-11-21T01:21:19;31.33;;;18.17;;
75930;SDS011;64609;47.052;15.462;2023-11-21T01:23:45;31.90;;;18.38;;
75930;SDS011;64609;47.052;15.462;2023-11-21T01:26:12;35.45;;;17.98;;
75930;SDS011;64609;47.052;15.462;2023-11-21T01:28:38;30.95;;;18.80;;
75930;SDS011;64609;47.052;15.462;2023-11-21T01:31:04;29.17;;;17.27;;
75930;SDS011;64609;47.052;15.462;2023-11-21T01:33:29;31.20;;;19.00;;
75930;SDS011;64609;47.052;15.462;2023-11-21T01:35:55;27.60;;;18.35;;
75930;SDS011;64609;47.052;15.462;2023-11-21T01:38:21;30.33;;;17.35;;
75930;SDS011;64609;47.052;15.462;2023-11-21T01:40:47;32.63;;;16.67;;
75930;SDS011;64609;47.052;15.462;2023-11-21T01:43:13;35.42;;;18.60;;
75930;SDS011;64609;47.052;15.462;2023-11-21T01:45:38;30.55;;;17.05;;
75930;SDS011;64609;47.052;15.462;2023-11-21T01:48:04;27.05;;;15.77;;
75930;SDS011;64609;47.052;15.462;2023-11-21T01:50:31;28.02;;;17.25;;
75930;SDS011;64609;47.052;15.462;2023-11-21T01:52:58;34.15;;;18.30;;
75930;SDS011;64609;47.052;15.462;2023-11-21T01:55:25;29.35;;;15.75;;
75930;SDS011;64609;47.052;15.462;2023-11-21T01:57:52;29.30;;;17.58;;
75930;SDS011;64609;47.052;15.462;2023-11-21T02:00:18;26.42;;;16.02;;
75930;SDS011;64609;47.052;15.462;2023-11-21T02:05:14;27.55;;;17.13;;
75930;SDS011;64609;47.052;15.462;2023-11-21T02:07:43;24.67;;;15.23;;
75930;SDS011;64609;47.052;15.462;2023-11-21T02:10:09;28.52;;;16.33;;
75930;SDS011;64609;47.052;15.462;2023-11-21T02:12:35;33.55;;;17.10;;
75930;SDS011;64609;47.052;15.462;2023-11-21T02:15:02;30.83;;;15.82;;
75930;SDS011;64609;47.052;15.462;2023-11-21T02:17:30;24.85;;;14.25;;
75930;SDS011;64609;47.052;15.462;2023-11-21T02:19:57;29.88;;;15.93;;
75930;SDS011;64609;47.052;15.462;2023-11-21T02:22:23;22.38;;;14.43;;
75930;SDS011;64609;47.052;15.462;2023-11-21T02:24:53;20.67;;;11.40;;
75930;SDS011;64609;47.052;15.462;2023-11-21T02:27:18;21.80;;;13.02;;
75930;SDS011;64609;47.052;15.462;2023-11-21T02:29:47;20.42;;;12.65;;
75930;SDS011;64609;47.052;15.462;2023-11-21T02:32:12;20.10;;;12.63;;
75930;SDS011;64609;47.052;15.462;2023-11-21T02:34:38;19.42;;;11.77;;
75930;SDS011;64609;47.052;15.462;2023-11-21T02:37:04;20.13;;;11.25;;
75930;SDS011;64609;47.052;15.462;2023-11-21T02:39:30;19.75;;;10.93;;
75930;SDS011;64609;47.052;15.462;2023-11-21T02:41:56;17.95;;;10.48;;
75930;SDS011;64609;47.052;15.462;2023-11-21T02:44:22;18.58;;;10.30;;
75930;SDS011;64609;47.052;15.462;2023-11-21T02:46:48;15.45;;;9.52;;
75930;SDS011;64609;47.052;15.462;2023-11-21T02:49:14;18.63;;;10.40;;
75930;SDS011;64609;47.052;15.462;2023-11-21T02:51:39;18.40;;;9.15;;
75930;SDS011;64609;47.052;15.462;2023-11-21T02:54:05;16.67;;;9.15;;
75930;SDS011;64609;47.052;15.462;2023-11-21T02:56:33;15.55;;;9.82;;
75930;SDS011;64609;47.052;15.462;2023-11-21T02:58:59;14.27;;;9.77;;
75930;SDS011;64609;47.052;15.462;2023-11-21T03:01:25;14.45;;;9.60;;
75930;SDS011;64609;47.052;15.462;2023-11-21T03:03:52;14.68;;;9.38;;
75930;SDS011;64609;47.052;15.462;2023-11-21T03:06:18;15.00;;;9.38;;
75930;SDS011;64609;47.052;15.462;2023-11-21T03:08:45;18.83;;;9.30;;
75930;SDS011;64609;47.052;15.462;2023-11-21T03:11:11;15.25;;;10.02;;
75930;SDS011;64609;47.052;15.462;2023-11-21T03:13:38;13.02;;;9.20;;
75930;SDS011;64609;47.052;15.462;2023-11-21T03:16:06;14.88;;;9.70;;
75930;SDS011;64609;47.052;15.462;2023-11-21T03:18:33;19.50;;;10.40;;
75930;SDS011;64609;47.052;15.462;2023-11-21T03:20:59;15.07;;;8.90;;
75930;SDS011;64609;47.052;15.462;2023-11-21T03:23:24;14.77;;;8.63;;
75930;SDS011;64609;47.052;15.462;2023-11-21T03:25:50;12.50;;;8.57;;
75930;SDS011;64609;47.052;15.462;2023-11-21T03:28:16;12.38;;;7.72;;
75930;SDS011;64609;47.052;15.462;2023-11-21T03:30:41;12.10;;;8.35;;
75930;SDS011;64609;47.052;15.462;2023-11-21T03:33:07;15.48;;;8.05;;
75930;SDS011;64609;47.052;15.462;2023-11-21T03:35:32;11.15;;;6.78;;
75930;SDS011;64609;47.052;15.462;2023-11-21T03:37:58;10.98;;;7.25;;
75930;SDS011;64609;47.052;15.462;2023-11-21T03:40:24;13.57;;;7.47;;
75930;SDS011;64609;47.052;15.462;2023-11-21T03:42:49;11.25;;;6.90;;
75930;SDS011;64609;47.052;15.462;2023-11-21T03:45:15;13.05;;;7.55;;
75930;SDS011;64609;47.052;15.462;2023-11-21T03:47:41;16.88;;;6.80;;
75930;SDS011;64609;47.052;15.462;2023-11-21T03:50:07;14.38;;;7.18;;
75930;SDS011;64609;47.052;15.462;2023-11-21T03:52:36;11.50;;;6.93;;
75930;SDS011;64609;47.052;15.462;2023-11-21T03:55:02;13.98;;;7.70;;
75930;SDS011;64609;47.052;15.462;2023-11-21T03:57:29;14.30;;;7.93;;
75930;SDS011;64609;47.052;15.462;2023-11-21T03:59:54;13.70;;;7.65;;
75930;SDS011;64609;47.052;15.462;2023-11-21T04:02:20;10.95;;;7.38;;
75930;SDS011;64609;47.052;15.462;2023-11-21T04:04:45;12.70;;;7.53;;
75930;SDS011;64609;47.052;15.462;2023-11-21T04:07:11;14.13;;;8.60;;
75930;SDS011;64609;47.052;15.462;2023-11-21T04:09:38;17.15;;;8.98;;
75930;SDS011;64609;47.052;15.462;2023-11-21T04:12:04;14.77;;;9.70;;
75930;SDS011;64609;47.052;15.462;2023-11-21T04:14:30;16.05;;;9.85;;
75930;SDS011;64609;47.052;15.462;2023-11-21T04:16:56;18.08;;;10.13;;
75930;SDS011;64609;47.052;15.462;2023-11-21T04:19:22;20.17;;;11.07;;
75930;SDS011;64609;47.052;15.462;2023-11-21T04:21:48;22.13;;;10.55;;
75930;SDS011;64609;47.052;15.462;2023-11-21T04:24:14;17.38;;;11.15;;
75930;SDS011;64609;47.052;15.462;2023-11-21T04:26:39;18.08;;;11.40;;
75930;SDS011;64609;47.052;15.462;2023-11-21T04:29:05;18.63;;;11.05;;
75930;SDS011;64609;47.052;15.462;2023-11-21T04:31:31;20.50;;;11.90;;
75930;SDS011;64609;47.052;15.462;2023-11-21T04:33:57;17.70;;;11.00;;
75930;SDS011;64609;47.052;15.462;2023-11-21T04:36:22;18.70;;;11.32;;
75930;SDS011;64609;47.052;15.462;2023-11-21T04:38:48;19.13;;;11.73;;
75930;SDS011;64609;47.052;15.462;2023-11-21T04:41:13;16.80;;;11.77;;
75930;SDS011;64609;47.052;15.462;2023-11-21T04:43:39;25.50;;;11.93;;
75930;SDS011;64609;47.052;15.462;2023-11-21T04:46:05;19.52;;;12.05;;
75930;SDS011;64609;47.052;15.462;2023-11-21T04:48:31;19.05;;;11.18;;
75930;SDS011;64609;47.052;15.462;2023-11-21T04:50:58;18.05;;;11.70;;
75930;SDS011;64609;47.052;15.462;2023-11-21T04:53:23;19.08;;;12.05;;
75930;SDS011;64609;47.052;15.462;2023-11-21T04:55:49;16.95;;;11.68;;
75930;SDS011;64609;47.052;15.462;2023-11-21T04:58:14;18.02;;;11.48;;
75930;SDS011;64609;47.052;15.462;2023-11-21T05:00:40;20.02;;;11.57;;
75930;SDS011;64609;47.052;15.462;2023-11-21T05:03:06;16.10;;;11.38;;
75930;SDS011;64609;47.052;15.462;2023-11-21T05:05:32;14.80;;;10.57;;
75930;SDS011;64609;47.052;15.462;2023-11-21T05:07:59;15.60;;;11.57;;
75930;SDS011;64609;47.052;15.462;2023-11-21T05:10:24;16.60;;;11.80;;
75930;SDS011;64609;47.052;15.462;2023-11-21T05:12:50;17.80;;;11.98;;
75930;SDS011;64609;47.052;15.462;2023-11-21T05:15:16;17.27;;;11.95;;
75930;SDS011;64609;47.052;15.462;2023-11-21T05:17:42;18.92;;;11.30;;
75930;SDS011;64609;47.052;15.462;2023-11-21T05:20:18;19.63;;;12.60;;
75930;SDS011;64609;47.052;15.462;2023-11-21T05:22:48;20.48;;;11.63;;
75930;SDS011;64609;47.052;15.462;2023-11-21T05:25:14;22.23;;;13.63;;
75930;SDS011;64609;47.052;15.462;2023-11-21T05:27:40;17.80;;;12.70;;
75930;SDS011;64609;47.052;15.462;2023-11-21T05:30:06;20.20;;;13.55;;
75930;SDS011;64609;47.052;15.462;2023-11-21T05:32:36;17.73;;;12.50;;
75930;SDS011;64609;47.052;15.462;2023-11-21T05:35:02;24.73;;;13.05;;
75930;SDS011;64609;47.052;15.462;2023-11-21T05:37:28;19.23;;;12.82;;
75930;SDS011;64609;47.052;15.462;2023-11-21T05:39:54;17.85;;;13.20;;
75930;SDS011;64609;47.052;15.462;2023-11-21T05:42:21;24.02;;;15.52;;
75930;SDS011;64609;47.052;15.462;2023-11-21T05:44:48;25.83;;;14.23;;
75930;SDS011;64609;47.052;15.462;2023-11-21T05:47:14;19.88;;;12.82;;
75930;SDS011;64609;47.052;15.462;2023-11-21T05:49:40;22.00;;;14.07;;
75930;SDS011;64609;47.052;15.462;2023-11-21T05:52:05;25.25;;;14.30;;
75930;SDS011;64609;47.052;15.462;2023-11-21T05:54:32;24.95;;;15.10;;
75930;SDS011;64609;47.052;15.462;2023-11-21T05:56:57;22.83;;;14.30;;
75930;SDS011;64609;47.052;15.462;2023-11-21T05:59:24;25.63;;;16.10;;
75930;SDS011;64609;47.052;15.462;2023-11-21T06:01:49;18.52;;;14.68;;
75930;SDS011;64609;47.052;15.462;2023-11-21T06:04:15;23.95;;;16.25;;
75930;SDS011;64609;47.052;15.462;2023-11-21T06:06:41;27.05;;;15.55;;
75930;SDS011;64609;47.052;15.462;2023-11-21T06:09:06;26.27;;;15.50;;
75930;SDS011;64609;47.052;15.462;2023-11-21T06:11:34;22.25;;;15.38;;
75930;SDS011;64609;47.052;15.462;2023-11-21T06:14:00;24.40;;;14.90;;
75930;SDS011;64609;47.052;15.462;2023-11-21T06:16:25;24.65;;;16.02;;
75930;SDS011;64609;47.052;15.462;2023-11-21T06:18:52;21.45;;;15.35;;
75930;SDS011;64609;47.052;15.462;2023-11-21T06:21:18;22.75;;;14.63;;
75930;SDS011;64609;47.052;15.462;2023-11-21T06:23:44;19.70;;;14.25;;
75930;SDS011;64609;47.052;15.462;2023-11-21T06:26:10;25.30;;;14.18;;
75930;SDS011;64609;47.052;15.462;2023-11-21T06:28:35;24.90;;;14.38;;
75930;SDS011;64609;47.052;15.462;2023-11-21T06:31:01;25.02;;;16.17;;
75930;SDS011;64609;47.052;15.462;2023-11-21T06:33:33;27.52;;;16.55;;
75930;SDS011;64609;47.052;15.462;2023-11-21T06:35:59;22.20;;;15.27;;
75930;SDS011;64609;47.052;15.462;2023-11-21T06:38:28;28.08;;;17.17;;
75930;SDS011;64609;47.052;15.462;2023-11-21T06:40:55;23.50;;;16.00;;
75930;SDS011;64609;47.052;15.462;2023-11-21T06:43:23;25.50;;;15.70;;
75930;SDS011;64609;47.052;15.462;2023-11-21T06:45:48;22.33;;;15.63;;
75930;SDS011;64609;47.052;15.462;2023-11-21T06:48:14;28.00;;;16.00;;
75930;SDS011;64609;47.052;15.462;2023-11-21T06:50:40;21.48;;;14.63;;
75930;SDS011;64609;47.052;15.462;2023-11-21T06:53:06;22.45;;;15.00;;
75930;SDS011;64609;47.052;15.462;2023-11-21T06:55:33;25.10;;;16.35;;
75930;SDS011;64609;47.052;15.462;2023-11-21T06:57:58;22.27;;;15.45;;
75930;SDS011;64609;47.052;15.462;2023-11-21T07:00:25;22.02;;;15.23;;
75930;SDS011;64609;47.052;15.462;2023-11-21T07:02:53;25.77;;;14.88;;
75930;SDS011;64609;47.052;15.462;2023-11-21T07:05:19;26.77;;;15.88;;
75930;SDS011;64609;47.052;15.462;2023-11-21T07:07:46;27.05;;;16.00;;
75930;SDS011;64609;47.052;15.462;2023-11-21T07:10:13;21.48;;;15.55;;
75930;SDS011;64609;47.052;15.462;2023-11-21T07:12:39;21.77;;;15.35;;
75930;SDS011;64609;47.052;15.462;2023-11-21T07:15:05;23.75;;;15.93;;
75930;SDS011;64609;47.052;15.462;2023-11-21T07:17:34;22.35;;;15.40;;
75930;SDS011;64609;47.052;15.462;2023-11-21T07:20:03;21.63;;;15.90;;
75930;SDS011;64609;47.052;15.462;2023-11-21T07:22:29;34.00;;;16.23;;
75930;SDS011;64609;47.052;15.462;2023-11-21T07:24:55;21.00;;;15.82;;
75930;SDS011;64609;47.052;15.462;2023-11-21T07:27:21;21.92;;;15.23;;
75930;SDS011;64609;47.052;15.462;2023-11-21T07:29:47;25.13;;;15.63;;
75930;SDS011;64609;47.052;15.462;2023-11-21T07:32:13;27.52;;;15.63;;
75930;SDS011;64609;47.052;15.462;2023-11-21T07:34:39;24.45;;;15.55;;
75930;SDS011;64609;47.052;15.462;2023-11-21T07:37:06;27.70;;;16.30;;
75930;SDS011;64609;47.052;15.462;2023-11-21T07:39:32;26.25;;;15.50;;
75930;SDS011;64609;47.052;15.462;2023-11-21T07:41:57;28.33;;;16.08;;
75930;SDS011;64609;47.052;15.462;2023-11-21T07:44:23;25.65;;;15.52;;
75930;SDS011;64609;47.052;15.462;2023-11-21T07:46:49;24.83;;;14.82;;
75930;SDS011;64609;47.052;15.462;2023-11-21T07:49:14;36.42;;;21.23;;
75930;SDS011;64609;47.052;15.462;2023-11-21T07:51:42;35.65;;;19.95;;
75930;SDS011;64609;47.052;15.462;2023-11-21T07:54:08;28.58;;;18.73;;
75930;SDS011;64609;47.052;15.462;2023-11-21T07:56:35;33.00;;;20.02;;
75930;SDS011;64609;47.052;15.462;2023-11-21T07:59:00;32.03;;;18.27;;
75930;SDS011;64609;47.052;15.462;2023-11-21T08:01:26;28.48;;;16.48;;
75930;SDS011;64609;47.052;15.462;2023-11-21T08:03:53;22.25;;;13.15;;
75930;SDS011;64609;47.052;15.462;2023-11-21T08:06:22;22.88;;;13.73;;
75930;SDS011;64609;47.052;15.462;2023-11-21T08:08:49;20.38;;;14.15;;
75930;SDS011;64609;47.052;15.462;2023-11-21T08:11:14;20.90;;;12.73;;
75930;SDS011;64609;47.052;15.462;2023-11-21T08:13:40;32.17;;;19.88;;
75930;SDS011;64609;47.052;15.462;2023-11-21T08:16:06;26.92;;;16.33;;
75930;SDS011;64609;47.052;15.462;2023-11-21T08:18:32;23.50;;;13.23;;
75930;SDS011;64609;47.052;15.462;2023-11-21T08:20:59;19.83;;;12.50;;
75930;SDS011;64609;47.052;15.462;2023-11-21T08:23:25;16.70;;;11.25;;
75930;SDS011;64609;47.052;15.462;2023-11-21T08:25:54;21.02;;;11.93;;
75930;SDS011;64609;47.052;15.462;2023-11-21T08:28:20;15.27;;;9.85;;
75930;SDS011;64609;47.052;15.462;2023-11-21T08:30:51;14.32;;;8.90;;
75930;SDS011;64609;47.052;15.462;2023-11-21T08:33:18;14.05;;;8.75;;
75930;SDS011;64609;47.052;15.462;2023-11-21T08:35:44;17.27;;;9.80;;
75930;SDS011;64609;47.052;15.462;2023-11-21T08:38:10;13.77;;;9.02;;
75930;SDS011;64609;47.052;15.462;2023-11-21T08:40:37;14.82;;;8.60;;
75930;SDS011;64609;47.052;15.462;2023-11-21T08:43:03;14.85;;;9.25;;
75930;SDS011;64609;47.052;15.462;2023-11-21T08:45:33;13.32;;;8.50;;
75930;SDS011;64609;47.052;15.462;2023-11-21T08:47:59;15.50;;;8.82;;
75930;SDS011;64609;47.052;15.462;2023-11-21T08:50:25;17.08;;;9.40;;
75930;SDS011;64609;47.052;15.462;2023-11-21T08:52:51;12.30;;;8.57;;
75930;SDS011;64609;47.052;15.462;2023-11-21T08:55:16;13.40;;;8.43;;
75930;SDS011;64609;47.052;15.462;2023-11-21T08:57:43;13.93;;;8.52;;
75930;SDS011;64609;47.052;15.462;2023-11-21T09:00:10;15.23;;;8.30;;
75930;SDS011;64609;47.052;15.462;2023-11-21T09:02:37;14.48;;;8.15;;
75930;SDS011;64609;47.052;15.462;2023-11-21T09:05:04;14.43;;;8.85;;
75930;SDS011;64609;47.052;15.462;2023-11-21T09:07:30;11.00;;;8.60;;
75930;SDS011;64609;47.052;15.462;2023-11-21T09:09:56;13.43;;;8.68;;
75930;SDS011;64609;47.052;15.462;2023-11-21T09:12:22;15.05;;;8.60;;
75930;SDS011;64609;47.052;15.462;2023-11-21T09:14:49;13.73;;;8.68;;
75930;SDS011;64609;47.052;15.462;2023-11-21T09:17:16;15.77;;;8.90;;
75930;SDS011;64609;47.052;15.462;2023-11-21T09:19:41;16.95;;;9.35;;
75930;SDS011;64609;47.052;15.462;2023-11-21T09:22:10;15.68;;;9.40;;
75930;SDS011;64609;47.052;15.462;2023-11-21T09:24:36;16.85;;;9.00;;
75930;SDS011;64609;47.052;15.462;2023-11-21T09:27:02;12.73;;;8.43;;
75930;SDS011;64609;47.052;15.462;2023-11-21T09:29:30;17.13;;;9.60;;
75930;SDS011;64609;47.052;15.462;2023-11-21T09:31:56;11.30;;;8.35;;
75930;SDS011;64609;47.052;15.462;2023-11-21T09:34:24;14.02;;;8.50;;
75930;SDS011;64609;47.052;15.462;2023-11-21T09:36:50;13.05;;;7.97;;
75930;SDS011;64609;47.052;15.462;2023-11-21T09:39:16;13.38;;;7.43;;
75930;SDS011;64609;47.052;15.462;2023-11-21T09:41:52;13.52;;;7.70;;
75930;SDS011;64609;47.052;15.462;2023-11-21T09:44:30;14.18;;;7.95;;
75930;SDS011;64609;47.052;15.462;2023-11-21T09:47:00;13.43;;;7.70;;
75930;SDS011;64609;47.052;15.462;2023-11-21T09:49:27;12.50;;;7.45;;
75930;SDS011;64609;47.052;15.462;2023-11-21T09:51:54;14.90;;;7.13;;
75930;SDS011;64609;47.052;15.462;2023-11-21T09:54:24;13.77;;;8.15;;
75930;SDS011;64609;47.052;15.462;2023-11-21T09:56:50;11.40;;;7.72;;
75930;SDS011;64609;47.052;15.462;2023-11-21T09:59:16;17.40;;;7.80;;
75930;SDS011;64609;47.052;15.462;2023-11-21T10:01:42;11.88;;;7.38;;
75930;SDS011;64609;47.052;15.462;2023-11-21T10:04:08;13.63;;;7.88;;
75930;SDS011;64609;47.052;15.462;2023-11-21T10:06:38;13.43;;;7.35;;
75930;SDS011;64609;47.052;15.462;2023-11-21T10:09:06;14.05;;;7.75;;
75930;SDS011;64609;47.052;15.462;2023-11-21T10:11:39;12.75;;;7.07;;
75930;SDS011;64609;47.052;15.462;2023-11-21T10:14:06;11.02;;;6.40;;
75930;SDS011;64609;47.052;15.462;2023-11-21T10:16:34;13.13;;;6.65;;
75930;SDS011;64609;47.052;15.462;2023-11-21T10:19:02;11.52;;;6.80;;
75930;SDS011;64609;47.052;15.462;2023-11-21T10:21:29;9.95;;;7.05;;
75930;SDS011;64609;47.052;15.462;2023-11-21T10:23:55;10.82;;;5.88;;
75930;SDS011;64609;47.052;15.462;2023-11-21T10:26:21;11.93;;;5.78;;
75930;SDS011;64609;47.052;15.462;2023-11-21T10:28:58;8.90;;;5.88;;
75930;SDS011;64609;47.052;15.462;2023-11-21T10:31:27;8.68;;;5.72;;
75930;SDS011;64609;47.052;15.462;2023-11-21T10:33:53;10.93;;;6.03;;
75930;SDS011;64609;47.052;15.462;2023-11-21T10:36:25;9.48;;;6.05;;
75930;SDS011;64609;47.052;15.462;2023-11-21T10:38:52;10.40;;;6.40;;
75930;SDS011;64609;47.052;15.462;2023-11-21T10:41:19;14.02;;;7.43;;
75930;SDS011;64609;47.052;15.462;2023-11-21T10:43:45;14.60;;;7.40;;
75930;SDS011;64609;47.052;15.462;2023-11-21T10:46:11;14.05;;;7.90;;
75930;SDS011;64609;47.052;15.462;2023-11-21T10:48:38;14.35;;;7.22;;
75930;SDS011;64609;47.052;15.462;2023-11-21T10:51:07;14.43;;;8.20;;
75930;SDS011;64609;47.052;15.462;2023-11-21T10:53:38;18.35;;;11.68;;
75930;SDS011;64609;47.052;15.462;2023-11-21T10:56:08;14.50;;;8.60;;
75930;SDS011;64609;47.052;15.462;2023-11-21T10:58:42;16.90;;;8.38;;
75930;SDS011;64609;47.052;15.462;2023-11-21T11:01:08;19.05;;;8.95;;
75930;SDS011;64609;47.052;15.462;2023-11-21T11:03:39;14.13;;;7.90;;
75930;SDS011;64609;47.052;15.462;2023-11-21T11:06:06;15.00;;;8.43;;
75930;SDS011;64609;47.052;15.462;2023-11-21T11:08:36;12.73;;;8.52;;
75930;SDS011;64609;47.052;15.462;2023-11-21T11:11:05;13.57;;;8.45;;
75930;SDS011;64609;47.052;15.462;2023-11-21T11:13:31;15.75;;;8.15;;
75930;SDS011;64609;47.052;15.462;2023-11-21T11:16:00;14.10;;;8.35;;
75930;SDS011;64609;47.052;15.462;2023-11-21T11:18:32;19.85;;;8.48;;
75930;SDS011;64609;47.052;15.462;2023-11-21T11:21:05;13.18;;;8.20;;
75930;SDS011;64609;47.052;15.462;2023-11-21T11:26:52;12.18;;;7.82;;
75930;SDS011;64609;47.052;15.462;2023-11-21T11:29:27;14.18;;;6.78;;
75930;SDS011;64609;47.052;15.462;2023-11-21T11:34:41;13.13;;;6.28;;
75930;SDS011;64609;47.052;15.462;2023-11-21T11:37:12;10.57;;;6.43;;
75930;SDS011;64609;47.052;15.462;2023-11-21T11:39:38;10.85;;;6.18;;
75930;SDS011;64609;47.052;15.462;2023-11-21T11:42:12;10.07;;;5.60;;
75930;SDS011;64609;47.052;15.462;2023-11-21T11:50:08;12.82;;;7.30;;
75930;SDS011;64609;47.052;15.462;2023-11-21T11:55:12;13.23;;;7.33;;
75930;SDS011;64609;47.052;15.462;2023-11-21T11:57:39;11.20;;;7.30;;
75930;SDS011;64609;47.052;15.462;2023-11-21T12:00:10;15.13;;;7.55;;
75930;SDS011;64609;47.052;15.462;2023-11-21T12:02:48;12.48;;;7.28;;
75930;SDS011;64609;47.052;15.462;2023-11-21T12:05:15;13.30;;;7.70;;
75930;SDS011;64609;47.052;15.462;2023-11-21T12:10:17;10.95;;;7.82;;
75930;SDS011;64609;47.052;15.462;2023-11-21T12:12:51;9.25;;;6.32;;
75930;SDS011;64609;47.052;15.462;2023-11-21T12:15:18;9.20;;;5.85;;
75930;SDS011;64609;47.052;15.462;2023-11-21T12:17:45;13.77;;;6.43;;
75930;SDS011;64609;47.052;15.462;2023-11-21T12:20:15;18.90;;;11.70;;
75930;SDS011;64609;47.052;15.462;2023-11-21T12:22:44;11.85;;;7.13;;
75930;SDS011;64609;47.052;15.462;2023-11-21T12:25:39;12.20;;;7.32;;
75930;SDS011;64609;47.052;15.462;2023-11-21T12:28:06;11.32;;;6.70;;
75930;SDS011;64609;47.052;15.462;2023-11-21T12:30:33;11.45;;;6.63;;
75930;SDS011;64609;47.052;15.462;2023-11-21T12:33:03;13.77;;;6.47;;
75930;SDS011;64609;47.052;15.462;2023-11-21T12:35:32;10.27;;;6.38;;
75930;SDS011;64609;47.052;15.462;2023-11-21T12:38:02;11.02;;;6.57;;
75930;SDS011;64609;47.052;15.462;2023-11-21T12:40:28;11.80;;;6.00;;
75930;SDS011;64609;47.052;15.462;2023-11-21T12:42:56;9.52;;;6.65;;
75930;SDS011;64609;47.052;15.462;2023-11-21T12:45:24;9.35;;;6.18;;
75930;SDS011;64609;47.052;15.462;2023-11-21T12:47:55;11.60;;;6.80;;
75930;SDS011;64609;47.052;15.462;2023-11-21T12:50:25;12.40;;;6.93;;
75930;SDS011;64609;47.052;15.462;2023-11-21T12:53:06;16.25;;;8.32;;
75930;SDS011;64609;47.052;15.462;2023-11-21T12:55:34;13.38;;;7.43;;
75930;SDS011;64609;47.052;15.462;2023-11-21T12:58:04;11.90;;;7.60;;
75930;SDS011;64609;47.052;15.462;2023-11-21T13:00:43;12.82;;;7.28;;
75930;SDS011;64609;47.052;15.462;2023-11-21T13:03:11;12.82;;;8.15;;
75930;SDS011;64609;47.052;15.462;2023-11-21T13:05:42;13.88;;;7.95;;
75930;SDS011;64609;47.052;15.462;2023-11-21T13:08:10;15.60;;;8.82;;
75930;SDS011;64609;47.052;15.462;2023-11-21T13:10:41;14.55;;;8.25;;
75930;SDS011;64609;47.052;15.462;2023-11-21T13:13:11;14.15;;;8.75;;
75930;SDS011;64609;47.052;15.462;2023-11-21T13:15:52;14.88;;;8.25;;
75930;SDS011;64609;47.052;15.462;2023-11-21T13:18:17;12.48;;;6.93;;
75930;SDS011;64609;47.052;15.462;2023-11-21T13:20:44;11.88;;;6.93;;
75930;SDS011;64609;47.052;15.462;2023-11-21T13:23:11;13.27;;;7.93;;
75930;SDS011;64609;47.052;15.462;2023-11-21T13:25:37;15.20;;;8.60;;
75930;SDS011;64609;47.052;15.462;2023-11-21T13:28:06;14.25;;;9.23;;
75930;SDS011;64609;47.052;15.462;2023-11-21T13:30:32;14.63;;;7.88;;
75930;SDS011;64609;47.052;15.462;2023-11-21T13:32:59;17.13;;;8.35;;
75930;SDS011;64609;47.052;15.462;2023-11-21T13:35:31;16.85;;;8.23;;
75930;SDS011;64609;47.052;15.462;2023-11-21T13:38:09;15.05;;;7.97;;
75930;SDS011;64609;47.052;15.462;2023-11-21T13:40:39;12.10;;;6.55;;
75930;SDS011;64609;47.052;15.462;2023-11-21T13:43:11;12.85;;;6.80;;
75930;SDS011;64609;47.052;15.462;2023-11-21T13:45:39;14.93;;;7.55;;
75930;SDS011;64609;47.052;15.462;2023-11-21T13:48:06;15.45;;;8.30;;
75930;SDS011;64609;47.052;15.462;2023-11-21T13:50:35;16.88;;;8.55;;
75930;SDS011;64609;47.052;15.462;2023-11-21T13:53:11;14.07;;;8.43;;
75930;SDS011;64609;47.052;15.462;2023-11-21T13:55:47;12.90;;;8.05;;
75930;SDS011;64609;47.052;15.462;2023-11-21T13:58:19;16.98;;;8.75;;
75930;SDS011;64609;47.052;15.462;2023-11-21T14:01:04;15.60;;;8.35;;
75930;SDS011;64609;47.052;15.462;2023-11-21T14:03:38;14.65;;;9.82;;
75930;SDS011;64609;47.052;15.462;2023-11-21T14:06:15;20.48;;;10.05;;
75930;SDS011;64609;47.052;15.462;2023-11-21T14:08:47;12.05;;;9.07;;
75930;SDS011;64609;47.052;15.462;2023-11-21T14:11:13;13.05;;;8.25;;
75930;SDS011;64609;47.052;15.462;2023-11-21T14:13:42;16.02;;;8.50;;
75930;SDS011;64609;47.052;15.462;2023-11-21T14:16:11;12.77;;;8.07;;
75930;SDS011;64609;47.052;15.462;2023-11-21T14:18:39;14.35;;;8.50;;
75930;SDS011;64609;47.052;15.462;2023-11-21T14:21:17;21.52;;;10.70;;
75930;SDS011;64609;47.052;15.462;2023-11-21T14:23:43;16.25;;;9.15;;
75930;SDS011;64609;47.052;15.462;2023-11-21T14:26:10;15.80;;;9.77;;
75930;SDS011;64609;47.052;15.462;2023-11-21T14:28:40;21.25;;;10.65;;
75930;SDS011;64609;47.052;15.462;2023-11-21T14:31:06;22.00;;;11.77;;
75930;SDS011;64609;47.052;15.462;2023-11-21T14:33:32;28.05;;;12.95;;
75930;SDS011;64609;47.052;15.462;2023-11-21T14:35:58;16.92;;;10.35;;